sensor_id;sensor_type;location;lat;lon;timestamp;pressure;altitude;pressure_sealevel;temperature;humidity
42007;BME280;27696;42.704;23.304;2022-08-01T00:00:22;95137.72;;;31.44;26.07
42007;BME280;27696;42.704;23.304;2022-08-01T00:02:47;95136.06;;;31.57;26.18
42007;BME280;27696;42.704;23.304;2022-08-01T00:05:13;95141.56;;;31.64;25.76
42007;BME280;27696;42.704;23.304;2022-08-01T00:07:39;95141.06;;;31.35;26.08
42007;BME280;27696;42.704;23.304;2022-08-01T00:10:09;95137.34;;;31.71;25.99
42007;BME280;27696;42.704;23.304;2022-08-01T00:12:35;95143.28;;;31.44;25.91
42007;BME280;27696;42.704;23.304;2022-08-01T00:15:01;95140.25;;;30.88;26.71
42007;BME280;27696;42.704;23.304;2022-08-01T00:17:26;95150.09;;;31.67;25.68
42007;BME280;27696;42.704;23.304;2022-08-01T00:19:52;95153.66;;;31.36;26.36
42007;BME280;27696;42.704;23.304;2022-08-01T00:22:17;95156.81;;;30.65;27.27
42007;BME280;27696;42.704;23.304;2022-08-01T00:24:43;95157.03;;;29.93;28.54
42007;BME280;27696;42.704;23.304;2022-08-01T00:27:08;95153.66;;;30.16;29.10
42007;BME280;27696;42.704;23.304;2022-08-01T00:29:33;95160.84;;;30.19;29.04
42007;BME280;27696;42.704;23.304;2022-08-01T00:31:59;95176.81;;;29.47;30.23
42007;BME280;27696;42.704;23.304;2022-08-01T00:34:25;95162.69;;;30.53;28.61
42007;BME280;27696;42.704;23.304;2022-08-01T00:36:50;95168.06;;;29.64;30.09
42007;BME280;27696;42.704;23.304;2022-08-01T00:39:15;95160.59;;;29.09;30.57
42007;BME280;27696;42.704;23.304;2022-08-01T00:41:41;95154.25;;;28.66;31.26
42007;BME280;27696;42.704;23.304;2022-08-01T00:44:07;95166.66;;;29.08;30.88
42007;BME280;27696;42.704;23.304;2022-08-01T00:46:33;95156.16;;;28.71;31.43
42007;BME280;27696;42.704;23.304;2022-08-01T00:48:59;95154.34;;;29.09;30.94
42007;BME280;27696;42.704;23.304;2022-08-01T00:51:26;95145.31;;;30.08;29.27
42007;BME280;27696;42.704;23.304;2022-08-01T00:53:52;95155.69;;;29.37;30.32
42007;BME280;27696;42.704;23.304;2022-08-01T00:56:23;95152.91;;;29.58;29.66
42007;BME280;27696;42.704;23.304;2022-08-01T00:58:49;95145.53;;;28.97;30.96
42007;BME280;27696;42.704;23.304;2022-08-01T01:01:15;95145.34;;;28.47;31.61
42007;BME280;27696;42.704;23.304;2022-08-01T01:03:41;95132.00;;;29.07;30.97
42007;BME280;27696;42.704;23.304;2022-08-01T01:17:06;95135.59;;;30.23;29.01
42007;BME280;27696;42.704;23.304;2022-08-01T01:19:37;95131.13;;;29.83;29.54
42007;BME280;27696;42.704;23.304;2022-08-01T01:22:27;95136.34;;;29.65;29.52
42007;BME280;27696;42.704;23.304;2022-08-01T01:28:23;95119.97;;;29.97;28.44
42007;BME280;27696;42.704;23.304;2022-08-01T01:30:55;95112.34;;;29.60;29.16
42007;BME280;27696;42.704;23.304;2022-08-01T01:33:23;95118.69;;;29.26;29.75
42007;BME280;27696;42.704;23.304;2022-08-01T01:35:52;95116.69;;;30.06;28.79
42007;BME280;27696;42.704;23.304;2022-08-01T01:38:33;95108.13;;;29.38;29.53
42007;BME280;27696;42.704;23.304;2022-08-01T01:41:00;95114.28;;;29.02;30.18
42007;BME280;27696;42.704;23.304;2022-08-01T01:43:29;95109.47;;;29.45;29.30
42007;BME280;27696;42.704;23.304;2022-08-01T01:45:55;95105.09;;;29.86;28.71
42007;BME280;27696;42.704;23.304;2022-08-01T01:48:23;95097.88;;;30.12;28.01
42007;BME280;27696;42.704;23.304;2022-08-01T01:50:51;95099.78;;;28.88;29.38
42007;BME280;27696;42.704;23.304;2022-08-01T01:53:20;95101.97;;;29.11;29.39
42007;BME280;27696;42.704;23.304;2022-08-01T01:55:49;95096.09;;;29.57;28.79
42007;BME280;27696;42.704;23.304;2022-08-01T01:58:16;95101.63;;;29.57;28.21
42007;BME280;27696;42.704;23.304;2022-08-01T02:00:44;95098.88;;;29.36;28.44
42007;BME280;27696;42.704;23.304;2022-08-01T02:03:12;95093.16;;;29.62;28.60
42007;BME280;27696;42.704;23.304;2022-08-01T02:05:38;95091.47;;;29.30;28.66
42007;BME280;27696;42.704;23.304;2022-08-01T02:08:05;95092.34;;;28.83;29.08
42007;BME280;27696;42.704;23.304;2022-08-01T02:10:33;95086.22;;;29.77;27.84
42007;BME280;27696;42.704;23.304;2022-08-01T02:13:03;95082.94;;;29.86;27.46
42007;BME280;27696;42.704;23.304;2022-08-01T02:15:30;95085.75;;;29.57;27.89
42007;BME280;27696;42.704;23.304;2022-08-01T02:17:57;95086.28;;;29.06;28.29
42007;BME280;27696;42.704;23.304;2022-08-01T02:20:24;95083.59;;;29.63;27.92
42007;BME280;27696;42.704;23.304;2022-08-01T02:22:53;95078.13;;;29.79;28.19
42007;BME280;27696;42.704;23.304;2022-08-01T02:25:31;95075.88;;;29.41;28.70
42007;BME280;27696;42.704;23.304;2022-08-01T02:28:09;95088.84;;;29.83;28.19
42007;BME280;27696;42.704;23.304;2022-08-01T02:30:37;95068.13;;;29.18;27.77
42007;BME280;27696;42.704;23.304;2022-08-01T02:33:39;95081.59;;;29.72;26.95
42007;BME280;27696;42.704;23.304;2022-08-01T02:36:06;95084.88;;;30.44;26.10
42007;BME280;27696;42.704;23.304;2022-08-01T02:38:39;95082.56;;;30.19;27.28
42007;BME280;27696;42.704;23.304;2022-08-01T02:41:08;95085.97;;;29.96;27.61
42007;BME280;27696;42.704;23.304;2022-08-01T02:43:37;95099.56;;;29.86;27.36
42007;BME280;27696;42.704;23.304;2022-08-01T02:46:06;95090.63;;;29.22;28.59
42007;BME280;27696;42.704;23.304;2022-08-01T02:48:35;95092.44;;;27.81;31.04
42007;BME280;27696;42.704;23.304;2022-08-01T02:51:02;95074.31;;;29.53;28.50
42007;BME280;27696;42.704;23.304;2022-08-01T02:53:31;95081.94;;;28.41;30.12
42007;BME280;27696;42.704;23.304;2022-08-01T02:55:58;95087.66;;;27.81;30.52
42007;BME280;27696;42.704;23.304;2022-08-01T02:58:25;95074.28;;;27.99;30.64
42007;BME280;27696;42.704;23.304;2022-08-01T03:00:51;95085.50;;;28.28;30.46
42007;BME280;27696;42.704;23.304;2022-08-01T03:03:17;95086.38;;;27.83;31.15
42007;BME280;27696;42.704;23.304;2022-08-01T03:05:44;95081.91;;;27.93;31.06
42007;BME280;27696;42.704;23.304;2022-08-01T03:08:11;95082.53;;;27.32;31.53
42007;BME280;27696;42.704;23.304;2022-08-01T03:10:41;95087.53;;;28.01;31.05
42007;BME280;27696;42.704;23.304;2022-08-01T03:13:09;95091.53;;;27.19;32.11
42007;BME280;27696;42.704;23.304;2022-08-01T03:15:39;95089.78;;;28.02;30.64
42007;BME280;27696;42.704;23.304;2022-08-01T03:18:07;95090.00;;;27.91;30.69
42007;BME280;27696;42.704;23.304;2022-08-01T03:20:34;95090.06;;;27.18;31.52
42007;BME280;27696;42.704;23.304;2022-08-01T03:23:04;95078.97;;;27.91;30.95
42007;BME280;27696;42.704;23.304;2022-08-01T03:25:31;95090.13;;;27.72;31.42
42007;BME280;27696;42.704;23.304;2022-08-01T03:27:59;95087.88;;;27.70;31.32
42007;BME280;27696;42.704;23.304;2022-08-01T03:30:27;95094.00;;;28.30;30.34
42007;BME280;27696;42.704;23.304;2022-08-01T03:32:54;95093.06;;;27.47;31.29
42007;BME280;27696;42.704;23.304;2022-08-01T03:35:21;95089.38;;;26.98;32.04
42007;BME280;27696;42.704;23.304;2022-08-01T03:37:52;95096.59;;;27.61;31.85
42007;BME280;27696;42.704;23.304;2022-08-01T03:40:25;95079.41;;;27.55;31.31
42007;BME280;27696;42.704;23.304;2022-08-01T03:43:00;95088.72;;;27.92;31.33
42007;BME280;27696;42.704;23.304;2022-08-01T03:45:31;95088.84;;;27.59;31.50
42007;BME280;27696;42.704;23.304;2022-08-01T03:48:01;95084.94;;;27.68;31.15
42007;BME280;27696;42.704;23.304;2022-08-01T03:50:28;95085.94;;;28.19;30.47
42007;BME280;27696;42.704;23.304;2022-08-01T03:52:57;95094.00;;;28.30;30.72
42007;BME280;27696;42.704;23.304;2022-08-01T03:55:25;95095.16;;;28.21;31.08
42007;BME280;27696;42.704;23.304;2022-08-01T03:57:51;95100.19;;;27.96;31.55
42007;BME280;27696;42.704;23.304;2022-08-01T04:00:17;95100.19;;;27.56;31.76
42007;BME280;27696;42.704;23.304;2022-08-01T04:02:49;95100.41;;;27.71;32.32
42007;BME280;27696;42.704;23.304;2022-08-01T04:05:15;95107.63;;;27.74;31.45
42007;BME280;27696;42.704;23.304;2022-08-01T04:07:45;95096.25;;;29.09;29.40
42007;BME280;27696;42.704;23.304;2022-08-01T04:10:12;95096.50;;;29.69;28.40
42007;BME280;27696;42.704;23.304;2022-08-01T04:12:37;95092.72;;;28.31;30.17
42007;BME280;27696;42.704;23.304;2022-08-01T04:15:04;95097.72;;;28.19;30.85
42007;BME280;27696;42.704;23.304;2022-08-01T04:17:29;95110.19;;;26.61;32.89
42007;BME280;27696;42.704;23.304;2022-08-01T04:19:55;95097.66;;;28.11;30.67
42007;BME280;27696;42.704;23.304;2022-08-01T04:22:20;95102.31;;;27.90;30.95
42007;BME280;27696;42.704;23.304;2022-08-01T04:24:48;95101.63;;;28.37;30.59
42007;BME280;27696;42.704;23.304;2022-08-01T04:27:19;95108.38;;;28.15;30.73
42007;BME280;27696;42.704;23.304;2022-08-01T04:29:47;95109.00;;;27.81;31.31
42007;BME280;27696;42.704;23.304;2022-08-01T04:32:17;95111.94;;;28.71;29.92
42007;BME280;27696;42.704;23.304;2022-08-01T04:34:46;95104.59;;;28.39;30.50
42007;BME280;27696;42.704;23.304;2022-08-01T04:37:13;95097.59;;;28.94;29.68
42007;BME280;27696;42.704;23.304;2022-08-01T04:39:42;95102.75;;;27.80;31.34
42007;BME280;27696;42.704;23.304;2022-08-01T04:42:08;95115.16;;;28.01;30.91
42007;BME280;27696;42.704;23.304;2022-08-01T04:44:35;95101.69;;;27.57;32.08
42007;BME280;27696;42.704;23.304;2022-08-01T04:47:03;95103.28;;;28.54;30.18
42007;BME280;27696;42.704;23.304;2022-08-01T04:49:32;95113.09;;;29.18;29.66
42007;BME280;27696;42.704;23.304;2022-08-01T04:51:58;95106.63;;;29.16;29.02
42007;BME280;27696;42.704;23.304;2022-08-01T04:54:26;95109.59;;;29.39;29.23
42007;BME280;27696;42.704;23.304;2022-08-01T04:56:53;95112.91;;;28.95;29.57
42007;BME280;27696;42.704;23.304;2022-08-01T04:59:21;95104.66;;;27.72;31.24
42007;BME280;27696;42.704;23.304;2022-08-01T05:02:05;95104.13;;;29.76;28.59
42007;BME280;27696;42.704;23.304;2022-08-01T05:04:31;95101.44;;;29.12;28.81
42007;BME280;27696;42.704;23.304;2022-08-01T05:06:56;95109.53;;;29.10;29.21
42007;BME280;27696;42.704;23.304;2022-08-01T05:09:22;95091.78;;;29.27;28.74
42007;BME280;27696;42.704;23.304;2022-08-01T05:11:47;95095.25;;;29.41;28.82
42007;BME280;27696;42.704;23.304;2022-08-01T05:14:13;95089.59;;;29.54;28.56
42007;BME280;27696;42.704;23.304;2022-08-01T05:16:38;95101.16;;;29.45;28.48
42007;BME280;27696;42.704;23.304;2022-08-01T05:19:04;95094.03;;;29.57;28.49
42007;BME280;27696;42.704;23.304;2022-08-01T05:21:29;95100.56;;;29.68;28.40
42007;BME280;27696;42.704;23.304;2022-08-01T05:23:55;95093.75;;;29.40;28.25
42007;BME280;27696;42.704;23.304;2022-08-01T05:26:20;95100.50;;;30.25;27.53
42007;BME280;27696;42.704;23.304;2022-08-01T05:28:46;95088.47;;;30.15;27.41
42007;BME280;27696;42.704;23.304;2022-08-01T05:31:11;95087.63;;;29.62;28.32
42007;BME280;27696;42.704;23.304;2022-08-01T05:33:37;95094.44;;;30.35;27.66
42007;BME280;27696;42.704;23.304;2022-08-01T05:36:02;95087.53;;;29.47;28.98
42007;BME280;27696;42.704;23.304;2022-08-01T05:38:28;95099.28;;;29.69;28.03
42007;BME280;27696;42.704;23.304;2022-08-01T05:40:53;95103.91;;;30.03;28.07
42007;BME280;27696;42.704;23.304;2022-08-01T05:43:19;95097.53;;;30.23;27.50
42007;BME280;27696;42.704;23.304;2022-08-01T05:45:44;95086.38;;;30.08;27.78
42007;BME280;27696;42.704;23.304;2022-08-01T05:48:11;95105.13;;;30.31;27.40
42007;BME280;27696;42.704;23.304;2022-08-01T05:50:36;95093.59;;;30.55;26.56
42007;BME280;27696;42.704;23.304;2022-08-01T05:53:02;95085.56;;;31.35;26.18
42007;BME280;27696;42.704;23.304;2022-08-01T05:55:27;95090.09;;;30.63;26.94
42007;BME280;27696;42.704;23.304;2022-08-01T05:57:53;95096.81;;;30.91;26.06
42007;BME280;27696;42.704;23.304;2022-08-01T06:00:18;95100.31;;;30.91;26.30
42007;BME280;27696;42.704;23.304;2022-08-01T06:02:43;95097.28;;;30.50;26.76
42007;BME280;27696;42.704;23.304;2022-08-01T06:05:09;95098.88;;;31.13;26.31
42007;BME280;27696;42.704;23.304;2022-08-01T06:07:35;95092.94;;;30.94;25.75
42007;BME280;27696;42.704;23.304;2022-08-01T06:10:00;95097.00;;;31.47;25.48
42007;BME280;27696;42.704;23.304;2022-08-01T06:12:26;95100.34;;;31.07;25.47
42007;BME280;27696;42.704;23.304;2022-08-01T06:14:51;95091.59;;;31.80;24.78
42007;BME280;27696;42.704;23.304;2022-08-01T06:17:17;95089.44;;;31.47;24.47
42007;BME280;27696;42.704;23.304;2022-08-01T06:19:42;95094.81;;;31.30;24.43
42007;BME280;27696;42.704;23.304;2022-08-01T06:22:08;95096.06;;;31.75;23.92
42007;BME280;27696;42.704;23.304;2022-08-01T06:24:33;95106.06;;;31.09;24.40
42007;BME280;27696;42.704;23.304;2022-08-01T06:26:59;95099.56;;;31.06;24.27
42007;BME280;27696;42.704;23.304;2022-08-01T06:29:24;95097.34;;;31.90;23.30
42007;BME280;27696;42.704;23.304;2022-08-01T06:31:49;95092.78;;;32.25;23.02
42007;BME280;27696;42.704;23.304;2022-08-01T06:34:15;95099.16;;;30.11;25.47
42007;BME280;27696;42.704;23.304;2022-08-01T06:36:40;95092.38;;;31.49;23.73
42007;BME280;27696;42.704;23.304;2022-08-01T06:39:06;95106.66;;;31.30;23.10
42007;BME280;27696;42.704;23.304;2022-08-01T06:41:31;95099.25;;;31.33;23.31
42007;BME280;27696;42.704;23.304;2022-08-01T06:43:57;95079.97;;;31.43;23.09
42007;BME280;27696;42.704;23.304;2022-08-01T06:46:25;95069.59;;;31.74;22.68
42007;BME280;27696;42.704;23.304;2022-08-01T06:48:50;95082.75;;;32.30;22.14
42007;BME280;27696;42.704;23.304;2022-08-01T06:51:15;95074.78;;;31.70;22.74
42007;BME280;27696;42.704;23.304;2022-08-01T06:53:44;95079.59;;;31.54;23.23
42007;BME280;27696;42.704;23.304;2022-08-01T06:56:10;95078.53;;;31.18;23.59
42007;BME280;27696;42.704;23.304;2022-08-01T06:58:35;95087.53;;;31.89;22.79
42007;BME280;27696;42.704;23.304;2022-08-01T07:01:03;95070.56;;;31.46;23.07
42007;BME280;27696;42.704;23.304;2022-08-01T07:03:31;95087.78;;;31.13;23.64
42007;BME280;27696;42.704;23.304;2022-08-01T07:05:56;95072.03;;;31.00;23.75
42007;BME280;27696;42.704;23.304;2022-08-01T07:08:22;95070.94;;;31.27;23.74
42007;BME280;27696;42.704;23.304;2022-08-01T07:10:47;95072.06;;;30.17;24.96
42007;BME280;27696;42.704;23.304;2022-08-01T07:13:13;95081.28;;;30.95;24.13
42007;BME280;27696;42.704;23.304;2022-08-01T07:15:40;95074.03;;;31.85;23.32
42007;BME280;27696;42.704;23.304;2022-08-01T07:18:05;95076.41;;;31.89;23.27
42007;BME280;27696;42.704;23.304;2022-08-01T07:20:30;95080.31;;;30.54;24.16
42007;BME280;27696;42.704;23.304;2022-08-01T07:22:56;95079.41;;;30.67;24.28
42007;BME280;27696;42.704;23.304;2022-08-01T07:25:22;95076.81;;;31.70;23.23
42007;BME280;27696;42.704;23.304;2022-08-01T07:27:47;95099.41;;;31.50;23.24
42007;BME280;27696;42.704;23.304;2022-08-01T07:30:13;95075.53;;;31.78;22.89
42007;BME280;27696;42.704;23.304;2022-08-01T07:32:38;95081.47;;;31.75;22.98
42007;BME280;27696;42.704;23.304;2022-08-01T07:35:04;95076.81;;;31.62;23.33
42007;BME280;27696;42.704;23.304;2022-08-01T07:37:30;95074.84;;;31.16;23.48
42007;BME280;27696;42.704;23.304;2022-08-01T07:39:55;95076.31;;;30.94;24.14
42007;BME280;27696;42.704;23.304;2022-08-01T07:42:22;95073.28;;;31.85;23.00
42007;BME280;27696;42.704;23.304;2022-08-01T07:44:50;95085.34;;;31.48;23.60
42007;BME280;27696;42.704;23.304;2022-08-01T07:47:15;95069.66;;;31.28;23.76
42007;BME280;27696;42.704;23.304;2022-08-01T07:49:42;95079.78;;;31.72;23.02
42007;BME280;27696;42.704;23.304;2022-08-01T07:52:08;95084.75;;;31.89;23.00
42007;BME280;27696;42.704;23.304;2022-08-01T07:54:33;95082.22;;;31.29;24.01
42007;BME280;27696;42.704;23.304;2022-08-01T07:57:00;95072.19;;;31.72;23.60
42007;BME280;27696;42.704;23.304;2022-08-01T07:59:26;95083.53;;;32.15;22.96
42007;BME280;27696;42.704;23.304;2022-08-01T08:01:51;95068.41;;;31.93;23.37
42007;BME280;27696;42.704;23.304;2022-08-01T08:04:17;95069.13;;;32.50;23.12
42007;BME280;27696;42.704;23.304;2022-08-01T08:06:43;95083.44;;;32.38;22.91
42007;BME280;27696;42.704;23.304;2022-08-01T08:09:10;95085.50;;;31.66;23.54
42007;BME280;27696;42.704;23.304;2022-08-01T08:11:35;95067.25;;;32.11;22.90
42007;BME280;27696;42.704;23.304;2022-08-01T08:14:01;95074.16;;;31.95;23.36
42007;BME280;27696;42.704;23.304;2022-08-01T08:16:26;95054.31;;;32.06;22.74
42007;BME280;27696;42.704;23.304;2022-08-01T08:18:51;95060.91;;;32.19;22.91
42007;BME280;27696;42.704;23.304;2022-08-01T08:21:17;95085.97;;;32.52;22.80
42007;BME280;27696;42.704;23.304;2022-08-01T08:23:42;95071.72;;;32.48;22.92
42007;BME280;27696;42.704;23.304;2022-08-01T08:26:26;95064.13;;;32.00;22.91
42007;BME280;27696;42.704;23.304;2022-08-01T08:28:51;95074.63;;;31.37;22.82
42007;BME280;27696;42.704;23.304;2022-08-01T08:31:17;95096.00;;;30.07;24.92
42007;BME280;27696;42.704;23.304;2022-08-01T08:33:42;95074.09;;;31.31;23.50
42007;BME280;27696;42.704;23.304;2022-08-01T08:36:08;95075.75;;;31.18;23.26
42007;BME280;27696;42.704;23.304;2022-08-01T08:38:33;95069.06;;;32.24;22.28
42007;BME280;27696;42.704;23.304;2022-08-01T08:40:59;95084.94;;;32.39;22.27
42007;BME280;27696;42.704;23.304;2022-08-01T08:43:25;95087.97;;;30.40;24.33
42007;BME280;27696;42.704;23.304;2022-08-01T08:45:52;95076.38;;;32.45;22.23
42007;BME280;27696;42.704;23.304;2022-08-01T08:48:17;95073.31;;;30.99;23.50
42007;BME280;27696;42.704;23.304;2022-08-01T08:50:43;95076.28;;;31.56;22.83
42007;BME280;27696;42.704;23.304;2022-08-01T08:53:13;95058.28;;;31.80;22.53
42007;BME280;27696;42.704;23.304;2022-08-01T08:55:40;95056.69;;;32.84;21.25
42007;BME280;27696;42.704;23.304;2022-08-01T08:58:14;95060.69;;;31.84;21.98
42007;BME280;27696;42.704;23.304;2022-08-01T09:00:43;95075.91;;;31.75;22.27
42007;BME280;27696;42.704;23.304;2022-08-01T09:03:08;95046.84;;;32.24;21.77
42007;BME280;27696;42.704;23.304;2022-08-01T09:05:33;95068.38;;;32.08;22.07
42007;BME280;27696;42.704;23.304;2022-08-01T09:07:59;95076.53;;;32.06;21.68
42007;BME280;27696;42.704;23.304;2022-08-01T09:10:25;95046.84;;;32.24;21.32
42007;BME280;27696;42.704;23.304;2022-08-01T09:13:09;95051.09;;;32.59;20.88
42007;BME280;27696;42.704;23.304;2022-08-01T09:18:08;95053.06;;;32.40;21.90
42007;BME280;27696;42.704;23.304;2022-08-01T09:20:33;95047.56;;;32.25;21.09
42007;BME280;27696;42.704;23.304;2022-08-01T09:23:01;95047.31;;;32.38;21.48
42007;BME280;27696;42.704;23.304;2022-08-01T09:25:27;95056.03;;;31.86;21.40
42007;BME280;27696;42.704;23.304;2022-08-01T09:28:05;95073.91;;;32.16;20.84
42007;BME280;27696;42.704;23.304;2022-08-01T09:30:40;95049.44;;;31.66;21.63
42007;BME280;27696;42.704;23.304;2022-08-01T09:33:06;95036.38;;;31.20;22.07
42007;BME280;27696;42.704;23.304;2022-08-01T09:35:32;95059.06;;;31.57;21.75
42007;BME280;27696;42.704;23.304;2022-08-01T09:38:21;95025.09;;;32.64;20.90
42007;BME280;27696;42.704;23.304;2022-08-01T09:43:23;95035.16;;;31.85;21.80
42007;BME280;27696;42.704;23.304;2022-08-01T09:45:50;95025.94;;;32.82;20.49
42007;BME280;27696;42.704;23.304;2022-08-01T09:48:16;95038.34;;;34.02;19.51
42007;BME280;27696;42.704;23.304;2022-08-01T09:50:46;95032.31;;;33.95;20.37
42007;BME280;27696;42.704;23.304;2022-08-01T09:53:12;95042.16;;;34.51;20.49
42007;BME280;27696;42.704;23.304;2022-08-01T09:55:39;95064.34;;;32.76;21.18
42007;BME280;27696;42.704;23.304;2022-08-01T09:58:05;95045.94;;;33.48;20.26
42007;BME280;27696;42.704;23.304;2022-08-01T10:00:32;95049.72;;;34.68;18.95
42007;BME280;27696;42.704;23.304;2022-08-01T10:02:57;95049.00;;;33.78;20.06
42007;BME280;27696;42.704;23.304;2022-08-01T10:05:31;95029.31;;;35.79;18.17
42007;BME280;27696;42.704;23.304;2022-08-01T10:08:03;95058.69;;;34.67;19.66
42007;BME280;27696;42.704;23.304;2022-08-01T10:10:29;95041.66;;;34.18;19.65
42007;BME280;27696;42.704;23.304;2022-08-01T10:12:57;95043.59;;;34.43;19.02
42007;BME280;27696;42.704;23.304;2022-08-01T10:15:23;95038.38;;;34.29;19.51
42007;BME280;27696;42.704;23.304;2022-08-01T10:17:53;95049.91;;;33.98;19.88
42007;BME280;27696;42.704;23.304;2022-08-01T10:20:22;95037.22;;;33.87;20.18
42007;BME280;27696;42.704;23.304;2022-08-01T10:22:49;95029.53;;;34.50;19.56
42007;BME280;27696;42.704;23.304;2022-08-01T10:25:16;95032.69;;;34.92;19.01
42007;BME280;27696;42.704;23.304;2022-08-01T10:27:43;95016.31;;;35.35;18.62
42007;BME280;27696;42.704;23.304;2022-08-01T10:30:11;95010.78;;;35.55;18.73
42007;BME280;27696;42.704;23.304;2022-08-01T10:32:37;95014.84;;;35.34;18.78
42007;BME280;27696;42.704;23.304;2022-08-01T10:35:06;95013.56;;;35.55;18.94
42007;BME280;27696;42.704;23.304;2022-08-01T10:37:33;95015.47;;;35.62;18.66
42007;BME280;27696;42.704;23.304;2022-08-01T10:40:00;95019.00;;;35.53;18.63
42007;BME280;27696;42.704;23.304;2022-08-01T10:42:26;95015.81;;;34.35;19.80
42007;BME280;27696;42.704;23.304;2022-08-01T10:44:54;95011.00;;;35.39;19.12
42007;BME280;27696;42.704;23.304;2022-08-01T10:47:42;95015.97;;;35.11;18.88
42007;BME280;27696;42.704;23.304;2022-08-01T10:50:19;95003.97;;;36.17;18.29
42007;BME280;27696;42.704;23.304;2022-08-01T10:53:09;95001.66;;;35.44;18.51
42007;BME280;27696;42.704;23.304;2022-08-01T10:55:51;95007.19;;;35.25;18.65
42007;BME280;27696;42.704;23.304;2022-08-01T10:58:38;95008.94;;;35.30;18.83
42007;BME280;27696;42.704;23.304;2022-08-01T11:06:25;94999.03;;;36.47;18.32
42007;BME280;27696;42.704;23.304;2022-08-01T11:08:53;94998.72;;;36.01;18.59
42007;BME280;27696;42.704;23.304;2022-08-01T11:11:20;94996.03;;;36.03;18.46
42007;BME280;27696;42.704;23.304;2022-08-01T11:16:31;94993.66;;;37.02;17.40
42007;BME280;27696;42.704;23.304;2022-08-01T11:18:57;94985.03;;;35.76;18.24
42007;BME280;27696;42.704;23.304;2022-08-01T11:27:19;94990.28;;;37.81;16.90
42007;BME280;27696;42.704;23.304;2022-08-01T11:32:55;94987.59;;;37.06;17.11
42007;BME280;27696;42.704;23.304;2022-08-01T11:35:22;94984.53;;;36.19;17.80
42007;BME280;27696;42.704;23.304;2022-08-01T11:37:51;94988.59;;;36.79;17.35
42007;BME280;27696;42.704;23.304;2022-08-01T11:42:46;94972.00;;;36.71;17.79
42007;BME280;27696;42.704;23.304;2022-08-01T11:45:12;94986.06;;;36.83;17.14
42007;BME280;27696;42.704;23.304;2022-08-01T11:47:48;94972.44;;;36.99;17.80
42007;BME280;27696;42.704;23.304;2022-08-01T11:53:03;94958.66;;;37.35;17.51
42007;BME280;27696;42.704;23.304;2022-08-01T11:55:30;94986.16;;;36.63;18.01
42007;BME280;27696;42.704;23.304;2022-08-01T12:00:26;94982.25;;;36.47;18.36
42007;BME280;27696;42.704;23.304;2022-08-01T12:03:03;94980.66;;;37.50;17.19
42007;BME280;27696;42.704;23.304;2022-08-01T12:05:30;94963.34;;;36.16;18.33
42007;BME280;27696;42.704;23.304;2022-08-01T12:07:59;94971.13;;;36.68;18.13
42007;BME280;27696;42.704;23.304;2022-08-01T12:10:27;94971.63;;;35.94;18.41
42007;BME280;27696;42.704;23.304;2022-08-01T12:13:00;94979.38;;;37.20;17.46
42007;BME280;27696;42.704;23.304;2022-08-01T12:15:30;94974.44;;;37.85;16.93
42007;BME280;27696;42.704;23.304;2022-08-01T12:17:58;94965.84;;;37.38;17.29
42007;BME280;27696;42.704;23.304;2022-08-01T12:20:24;94979.84;;;36.94;17.96
42007;BME280;27696;42.704;23.304;2022-08-01T12:22:54;94974.81;;;36.71;18.15
42007;BME280;27696;42.704;23.304;2022-08-01T12:25:20;94969.59;;;37.30;17.22
42007;BME280;27696;42.704;23.304;2022-08-01T12:27:47;94981.19;;;35.81;18.58
42007;BME280;27696;42.704;23.304;2022-08-01T12:30:15;94968.38;;;36.59;17.86
42007;BME280;27696;42.704;23.304;2022-08-01T12:32:42;94967.84;;;37.25;17.60
42007;BME280;27696;42.704;23.304;2022-08-01T12:35:11;94968.66;;;36.94;17.96
42007;BME280;27696;42.704;23.304;2022-08-01T12:37:43;94968.22;;;38.20;16.79
42007;BME280;27696;42.704;23.304;2022-08-01T12:40:11;94980.84;;;37.98;16.96
42007;BME280;27696;42.704;23.304;2022-08-01T12:42:41;94962.56;;;37.97;16.83
42007;BME280;27696;42.704;23.304;2022-08-01T12:45:08;94970.47;;;38.34;16.83
42007;BME280;27696;42.704;23.304;2022-08-01T12:47:38;94998.03;;;38.49;16.69
42007;BME280;27696;42.704;23.304;2022-08-01T12:50:16;94959.63;;;39.37;15.62
42007;BME280;27696;42.704;23.304;2022-08-01T12:52:42;94954.47;;;38.96;15.89
42007;BME280;27696;42.704;23.304;2022-08-01T12:55:10;94983.94;;;38.14;16.83
42007;BME280;27696;42.704;23.304;2022-08-01T12:57:38;94962.91;;;38.60;16.49
42007;BME280;27696;42.704;23.304;2022-08-01T13:00:08;94943.94;;;39.84;15.61
42007;BME280;27696;42.704;23.304;2022-08-01T13:02:34;94953.00;;;38.95;16.23
42007;BME280;27696;42.704;23.304;2022-08-01T13:05:00;94955.91;;;39.09;16.17
42007;BME280;27696;42.704;23.304;2022-08-01T13:07:47;94950.44;;;38.51;16.68
42007;BME280;27696;42.704;23.304;2022-08-01T13:10:14;94947.97;;;39.17;16.08
42007;BME280;27696;42.704;23.304;2022-08-01T13:12:42;94942.78;;;39.63;16.07
42007;BME280;27696;42.704;23.304;2022-08-01T13:15:22;94955.19;;;40.77;14.79
42007;BME280;27696;42.704;23.304;2022-08-01T13:17:49;94924.22;;;41.35;14.19
42007;BME280;27696;42.704;23.304;2022-08-01T13:20:47;94947.53;;;39.46;15.94
42007;BME280;27696;42.704;23.304;2022-08-01T13:23:14;94958.19;;;39.74;15.42
42007;BME280;27696;42.704;23.304;2022-08-01T13:25:54;94943.41;;;40.67;14.72
42007;BME280;27696;42.704;23.304;2022-08-01T13:28:25;94923.97;;;40.31;15.10
42007;BME280;27696;42.704;23.304;2022-08-01T13:30:57;94962.72;;;39.93;15.51
42007;BME280;27696;42.704;23.304;2022-08-01T13:33:24;94926.06;;;40.87;14.60
42007;BME280;27696;42.704;23.304;2022-08-01T13:35:52;94928.66;;;40.27;14.90
42007;BME280;27696;42.704;23.304;2022-08-01T13:38:17;94920.16;;;40.13;15.37